Airfield :
LOGIN :

Register | Disclaimer

   EN    FR    IT 

 










Legend :    VFR   Marginal VFR   IFR   Intensive IFR   Very Intensive IFR
Visi :
Ceiling :
>= 8 km
>= 3000ft
5 to 8 km
1000 to 3000 ft
1500m to 5 km
500 to 1000 ft
800 to 1500m
200 to 500 ft
< 800m
< 200 ft
Symbols :   Thunderstorms  Fog  Heavy snow  Heavy precipitations  Wind > 20 kt
SIGMETs :     Misc.  Thunderstorms  Icing  Turbulence  Mountain Waves  Volcanic Ashes







- Airport Elevation : 20 ft
- IATA code : DLM


LTBS - Dalaman

CURRENT METAR :
  • 230550Z 07005KT CAVOK 14/08 Q1014 NOSIG RMK RWY19 35004KT

EXPIRED METARs :
  • 230520Z 08005KT CAVOK 12/09 Q1014 NOSIG RMK RWY19 35002KT
  • 230450Z 07004KT CAVOK 10/08 Q1014 NOSIG RMK RWY19 VRB02KT
  • 230420Z 08006KT CAVOK 09/07 Q1014 NOSIG RMK RWY19 03005KT 360V070
  • 230350Z 05006KT CAVOK 10/07 Q1014 NOSIG RMK RWY19 34005KT
  • 230320Z 04007KT CAVOK 10/08 Q1014 NOSIG RMK RWY19 35008KT

TAF TAF LTBS
Valid from the 23 at 06:00 until the 24 at 06:00 UTC


230440Z 2306/2406 VRB02KT CAVOK
BECMG 2307/2309 21012KT FEW030
BECMG 2315/2317 VRB02KT CAVOK
No reported NOTAMs for that airfield.



MET'MAP, your aeronautical weather chart ! - Copyright ORBIFLY December 2007 - Disclaimer

ORBIFLY MET'MAP TEAM :

Programming & Development : Alexandra Zaïnal
Concept & Development : Baudouin d'Aumeries
Co-Development & Prog : Marc-Olivier Méhu
Technical & hardware support : Manuel Goepfert

Contact : metmap@orbifly.com




SOURCES & CREDITS :

   NOAA